Time;durP1;ratioP1;P1;durP2;ratioP2;P2;SDS_P1;SDS_P2;PMS_P1;PMS_P2;Temp;Humidity;BMP_temperature;BMP_pressure;BME280_temperature;BME280_humidity;BME280_pressure;Samples;Min_cycle;Max_cycle;Signal;HPM_P1;HPM_P2
2022/12/11 00:01:52;;;;;;;8.77;2.97;;;;;;;1.60;100.00;101270.84;5098728;27;98856;-31
2022/12/11 00:04:17;;;;;;;3.80;2.92;;;;;;;1.57;100.00;101268.19;5098988;27;97761;-31
2022/12/11 00:06:43;;;;;;;5.97;3.53;;;;;;;1.59;100.00;101261.91;5098970;27;96584;-31
2022/12/11 00:09:08;;;;;;;3.88;2.55;;;;;;;1.61;100.00;101264.56;5099450;27;96850;-31
2022/12/11 00:11:34;;;;;;;4.93;2.97;;;;;;;1.60;100.00;101260.16;5098869;27;97517;-31
2022/12/11 00:13:59;;;;;;;4.40;3.65;;;;;;;1.61;100.00;101249.44;5098841;27;97865;-31
2022/12/11 00:16:24;;;;;;;4.22;2.80;;;;;;;1.61;100.00;101253.88;5098601;27;96628;-31
2022/12/11 00:18:50;;;;;;;4.40;3.25;;;;;;;1.64;100.00;101257.38;5098414;27;96893;-33
2022/12/11 00:21:15;;;;;;;5.38;3.17;;;;;;;1.66;100.00;101260.91;5098333;27;99114;-31
2022/12/11 00:23:41;;;;;;;4.78;3.40;;;;;;;1.67;100.00;101259.13;5097812;27;97826;-33
2022/12/11 00:26:11;;;;;;;8.00;3.10;;;;;;;1.64;100.00;101265.38;5098572;27;96519;-31
2022/12/11 00:28:36;;;;;;;4.90;2.38;;;;;;;1.64;100.00;101257.38;5098624;27;96781;-33
2022/12/11 00:31:07;;;;;;;5.28;3.42;;;;;;;1.62;100.00;101264.56;5098448;27;100563;-32
2022/12/11 00:33:32;;;;;;;4.68;2.95;;;;;;;1.59;100.00;101251.22;5080083;27;101493;-30
2022/12/11 00:35:58;;;;;;;3.67;2.53;;;;;;;1.62;100.00;101258.31;5098613;27;96534;-31
2022/12/11 00:38:23;;;;;;;2.60;2.03;;;;;;;1.60;100.00;101258.34;5098776;27;96849;-32
2022/12/11 00:40:49;;;;;;;4.68;2.95;;;;;;;1.57;100.00;101253.03;5097958;27;98048;-32
2022/12/11 00:43:14;;;;;;;5.43;3.08;;;;;;;1.59;100.00;101253.03;5098431;27;97958;-31
2022/12/11 00:45:42;;;;;;;6.15;2.00;;;;;;;1.58;100.00;101260.16;5079735;27;96584;-31
2022/12/11 00:48:08;;;;;;;6.68;3.15;;;;;;;1.58;100.00;101262.84;5098380;27;96801;-31
2022/12/11 00:50:34;;;;;;;4.18;2.40;;;;;;;1.53;100.00;101243.34;5078943;27;101004;-31
2022/12/11 00:53:00;;;;;;;2.95;2.13;;;;;;;1.57;100.00;101254.84;5079260;27;100783;-31
2022/12/11 00:55:27;;;;;;;2.75;2.45;;;;;;;1.55;100.00;101243.31;5098512;27;96500;-31
2022/12/11 00:57:53;;;;;;;5.10;2.85;;;;;;;1.58;100.00;101256.63;5098538;27;96784;-31
2022/12/11 01:00:19;;;;;;;5.32;2.95;;;;;;;1.57;99.98;101253.03;5097765;27;100979;-32
2022/12/11 01:02:44;;;;;;;2.22;1.02;;;;;;;1.57;100.00;101253.03;5079319;27;101112;-31
2022/12/11 01:05:10;;;;;;;2.22;1.75;;;;;;;1.55;100.00;101248.66;5097533;27;96506;-31
2022/12/11 01:07:36;;;;;;;3.80;2.45;;;;;;;1.59;100.00;101253.91;5098073;27;96867;-31
2022/12/11 01:12:45;;;;;;;2.28;1.48;;;;;;;1.53;100.00;101255.81;5098140;27;96903;-30
2022/12/11 01:15:11;;;;;;;3.28;2.33;;;;;;;1.51;100.00;101254.97;5097899;27;96461;-31
2022/12/11 01:17:36;;;;;;;4.97;1.92;;;;;;;1.51;100.00;101255.84;5098147;27;96766;-31
2022/12/11 01:20:03;;;;;;;7.25;3.75;;;;;;;1.54;100.00;101266.47;5097247;27;97943;-32
2022/12/11 01:22:29;;;;;;;4.15;2.00;;;;;;;1.51;100.00;101263.84;5079048;27;101010;-30
2022/12/11 01:24:55;;;;;;;4.40;3.15;;;;;;;1.49;99.89;101257.66;5078798;27;96738;-31
2022/12/11 01:27:20;;;;;;;3.03;1.77;;;;;;;1.52;100.00;101265.59;5097561;27;96681;-31
2022/12/11 01:29:45;;;;;;;2.42;1.80;;;;;;;1.51;99.64;101269.19;5097241;27;97293;-31
2022/12/11 01:32:11;;;;;;;3.30;1.52;;;;;;;1.52;99.81;101268.28;5097246;27;99138;-31
2022/12/11 01:34:36;;;;;;;4.10;1.60;;;;;;;1.46;99.96;101255.91;5097522;27;96633;-32
2022/12/11 01:37:01;;;;;;;7.40;4.32;;;;;;;1.45;99.93;101253.28;5097794;27;97224;-31
2022/12/11 01:39:27;;;;;;;2.60;1.73;;;;;;;1.44;99.84;101257.72;5097368;27;97305;-31
2022/12/11 01:42:00;;;;;;;2.50;1.75;;;;;;;1.45;99.72;101266.63;5078609;27;100770;-32
2022/12/11 01:44:25;;;;;;;1.95;1.40;;;;;;;1.49;99.94;101257.66;5078895;27;96662;-30
2022/12/11 01:46:52;;;;;;;3.00;1.65;;;;;;;1.48;99.63;101255.91;5097927;27;96733;-31
2022/12/11 01:49:19;;;;;;;4.47;2.08;;;;;;;1.49;99.60;101246.97;5078539;27;100754;-30
2022/12/11 01:51:49;;;;;;;1.75;1.55;;;;;;;1.48;99.40;101243.44;5078474;27;100734;-31
2022/12/11 01:54:18;;;;;;;2.88;1.83;;;;;;;1.48;99.42;101248.78;5078334;27;96640;-31
2022/12/11 01:56:45;;;;;;;4.38;2.60;;;;;;;1.42;99.75;101238.19;5078624;27;96907;-31
2022/12/11 01:59:13;;;;;;;2.28;1.42;;;;;;;1.44;99.90;101240.84;5078389;27;99898;-31
2022/12/11 02:01:47;;;;;;;4.47;2.50;;;;;;;1.50;99.48;101248.72;5077239;27;99338;-32
2022/12/11 02:04:14;;;;;;;5.35;3.22;;;;;;;1.43;99.48;101239.06;5078721;27;96690;-31
2022/12/11 02:06:45;;;;;;;1.88;1.58;;;;;;;1.43;99.47;101244.41;5078553;27;96867;-31
2022/12/11 02:09:13;;;;;;;2.30;1.98;;;;;;;1.44;99.09;101246.19;5096916;27;99442;-31
2022/12/11 02:11:51;;;;;;;4.88;2.30;;;;;;;1.42;99.63;101243.53;5078567;27;100699;-31
2022/12/11 02:14:41;;;;;;;3.63;2.28;;;;;;;1.41;99.28;101251.59;5078615;27;96545;-31
2022/12/11 02:17:23;;;;;;;5.90;3.47;;;;;;;1.43;99.16;101247.06;5097445;27;96683;-31
2022/12/11 02:20:11;;;;;;;2.60;1.83;;;;;;;1.37;98.80;101253.41;5077375;27;101337;-30
2022/12/11 02:23:13;;;;;;;4.28;1.55;;;;;;;1.41;99.13;101251.59;5077688;27;101262;-32
2022/12/11 02:26:16;;;;;;;1.95;1.42;;;;;;;1.41;99.50;101248.91;5096998;27;96544;-31
2022/12/11 02:28:47;;;;;;;;;;;;;;;1.44;99.59;101246.19;5097608;27;96776;-30
2022/12/11 02:31:25;;;;;;;0.43;0.30;;;;;;;1.43;99.40;101239.06;5096869;27;97951;-31
2022/12/11 02:34:07;;;;;;;1.48;0.98;;;;;;;1.40;99.04;101241.78;5077961;27;101123;-31
2022/12/11 02:36:38;;;;;;;2.72;1.52;;;;;;;1.41;99.43;101241.78;5078174;27;96555;-32
2022/12/11 02:39:06;;;;;;;4.78;1.67;;;;;;;1.37;99.13;101240.06;5097500;27;96661;-32
2022/12/11 02:41:33;;;;;;;3.58;2.20;;;;;;;1.38;99.18;101230.25;5077668;27;101278;-31
2022/12/11 02:44:01;;;;;;;0.95;0.82;;;;;;;1.38;99.30;101232.94;5077614;27;101080;-31
2022/12/11 02:46:28;;;;;;;4.63;1.80;;;;;;;1.42;99.35;101234.66;5077144;27;96571;-32
2022/12/11 02:48:55;;;;;;;3.13;1.77;;;;;;;1.40;99.33;101220.44;5077944;27;96846;-31
2022/12/11 02:51:32;;;;;;;1.50;1.25;;;;;;;1.45;99.58;101232.81;5077563;27;101050;-32
2022/12/11 02:53:58;;;;;;;2.20;1.60;;;;;;;1.45;99.37;101237.25;5077469;27;100878;-31
2022/12/11 02:56:37;;;;;;;3.75;2.00;;;;;;;1.49;99.53;101228.28;5078030;27;96532;-31
2022/12/11 02:59:11;;;;;;;2.60;2.03;;;;;;;1.45;99.34;101224.81;5096553;27;96500;-31
2022/12/11 03:01:37;;;;;;;2.05;1.60;;;;;;;1.50;99.24;101224.69;5077439;27;100847;-31
2022/12/11 03:04:02;;;;;;;1.15;0.95;;;;;;;1.45;99.17;101219.47;5096437;27;97470;-31
2022/12/11 03:06:34;;;;;;;7.28;2.95;;;;;;;1.44;99.44;101214.16;5096407;27;96503;-31
2022/12/11 03:08:59;;;;;;;4.75;3.13;;;;;;;1.45;99.23;101223.91;5077646;27;96747;-31
2022/12/11 03:11:25;;;;;;;2.70;2.13;;;;;;;1.40;99.65;101199.09;5095660;27;97460;-31
2022/12/11 03:13:52;;;;;;;3.03;2.13;;;;;;;1.46;99.66;101205.22;5095589;27;99734;-31
2022/12/11 03:16:34;;;;;;;2.55;2.08;;;;;;;1.44;99.15;101208.81;5077475;27;96631;-33
2022/12/11 03:19:23;;;;;;;3.63;2.58;;;;;;;1.43;99.52;101217.72;5077503;27;96912;-31
2022/12/11 03:21:58;;;;;;;3.58;2.30;;;;;;;1.43;99.32;101217.72;5076800;27;100894;-30
2022/12/11 03:24:35;;;;;;;1.92;1.75;;;;;;;1.44;99.40;101211.50;5076865;27;101088;-31
2022/12/11 03:27:09;;;;;;;3.08;2.35;;;;;;;1.41;99.57;101209.75;5077343;27;96896;-33
2022/12/11 03:29:39;;;;;;;4.30;2.55;;;;;;;1.43;99.46;101202.59;5077716;27;96682;-31
2022/12/11 03:32:10;;;;;;;5.07;3.20;;;;;;;1.45;99.45;101199.88;5076988;27;101002;-31
2022/12/11 03:34:43;;;;;;;9.48;2.45;;;;;;;1.44;99.12;101195.47;5077170;27;99000;-31
2022/12/11 03:37:10;;;;;;;3.70;2.85;;;;;;;1.43;99.35;101197.28;5095599;27;96653;-31
2022/12/11 03:39:40;;;;;;;3.92;2.60;;;;;;;1.45;99.45;101195.44;5096002;27;96911;-30
2022/12/11 03:42:08;;;;;;;5.30;2.80;;;;;;;1.46;99.44;101194.53;5076941;27;100685;-31
2022/12/11 03:44:35;;;;;;;4.45;3.03;;;;;;;1.44;99.30;101198.13;5076877;27;100995;-32
2022/12/11 03:47:04;;;;;;;5.57;3.45;;;;;;;1.45;99.30;101205.22;5077211;27;96659;-32
2022/12/11 03:49:34;;;;;;;7.15;3.03;;;;;;;1.44;99.32;101198.13;5077165;27;96654;-31
2022/12/11 03:52:01;;;;;;;5.90;3.38;;;;;;;1.42;99.31;101200.81;5076587;27;101021;-32
2022/12/11 03:54:27;;;;;;;4.82;3.20;;;;;;;1.41;99.51;101196.41;5077117;27;100787;-31
2022/12/11 03:56:56;;;;;;;4.78;3.25;;;;;;;1.41;99.02;101193.75;5095550;27;96513;-31
2022/12/11 03:59:21;;;;;;;3.35;2.42;;;;;;;1.44;99.54;101192.81;5077039;27;96870;-31
2022/12/11 04:01:47;;;;;;;2.67;1.48;;;;;;;1.41;99.41;101188.41;5094976;27;97974;-31
2022/12/11 04:04:12;;;;;;;2.67;2.08;;;;;;;1.42;99.12;101183.94;5095524;27;97317;-31
2022/12/11 04:06:38;;;;;;;7.07;2.10;;;;;;;1.44;99.28;101177.66;5095327;27;96650;-31
2022/12/11 04:09:03;;;;;;;2.47;1.48;;;;;;;1.45;98.80;101186.53;5095534;27;96716;-31
2022/12/11 04:11:34;;;;;;;2.70;1.77;;;;;;;1.47;99.02;101184.72;5095383;27;97857;-32
2022/12/11 04:16:49;;;;;;;2.53;1.70;;;;;;;1.52;99.34;101179.31;5095834;27;96413;-31
2022/12/11 04:24:43;;;;;;;1.77;1.67;;;;;;;1.52;99.10;101179.31;5095225;27;97015;-31
2022/12/11 04:27:08;;;;;;;7.10;3.75;;;;;;;1.51;98.76;101183.78;5079582;27;96629;-31
2022/12/11 04:29:34;;;;;;;2.22;1.80;;;;;;;1.50;98.61;101184.66;5098925;27;96816;-31
2022/12/11 04:31:59;;;;;;;3.03;2.05;;;;;;;1.49;98.35;101185.59;5098672;27;97897;-31
2022/12/11 04:34:24;;;;;;;2.88;2.10;;;;;;;1.52;98.40;101188.19;5098446;27;97801;-31
2022/12/11 04:36:50;;;;;;;5.38;2.97;;;;;;;1.49;98.60;101196.25;5098923;27;96757;-32
2022/12/11 04:39:15;;;;;;;7.95;3.38;;;;;;;1.42;97.35;101184.81;5098722;27;96737;-31
2022/12/11 04:41:41;;;;;;;1.67;1.27;;;;;;;1.40;97.19;101180.41;5079557;27;98748;-31
2022/12/11 04:44:06;;;;;;;6.25;3.42;;;;;;;1.42;97.86;101189.28;5098204;27;99267;-31
2022/12/11 04:46:33;;;;;;;2.42;1.77;;;;;;;1.40;97.56;101188.41;5098601;27;96572;-31
2022/12/11 04:48:59;;;;;;;8.02;2.70;;;;;;;1.39;97.83;101179.53;5079845;27;96836;-32
2022/12/11 04:51:25;;;;;;;3.78;1.45;;;;;;;1.41;98.14;101180.41;5079028;27;100705;-31
2022/12/11 04:53:51;;;;;;;4.70;2.00;;;;;;;1.42;98.00;101181.28;5079458;27;101013;-31
2022/12/11 04:56:16;;;;;;;4.70;2.92;;;;;;;1.40;97.64;101183.09;5098522;27;96843;-31
2022/12/11 04:58:43;;;;;;;3.78;2.85;;;;;;;1.40;98.07;101185.75;5098200;27;96849;-31
2022/12/11 05:01:11;;;;;;;2.85;1.80;;;;;;;1.41;98.01;101187.53;5079340;27;100986;-31
2022/12/11 05:03:37;;;;;;;3.05;2.33;;;;;;;1.40;98.23;101181.28;5079194;27;101024;-30
2022/12/11 05:06:03;;;;;;;3.00;2.15;;;;;;;1.45;97.99;101182.09;5098202;27;96745;-31
2022/12/11 05:08:28;;;;;;;2.95;1.75;;;;;;;1.42;97.56;101179.47;5098376;27;96784;-31
2022/12/11 05:11:06;;;;;;;2.58;1.67;;;;;;;1.39;97.69;101181.34;5098039;27;97825;-32
2022/12/11 05:13:32;;;;;;;2.17;1.58;;;;;;;1.39;97.71;101184.00;5079098;27;101809;-32
2022/12/11 05:15:57;;;;;;;1.85;1.10;;;;;;;1.41;97.73;101185.72;5097647;27;96583;-31
2022/12/11 05:18:23;;;;;;;4.10;2.00;;;;;;;1.40;97.54;101177.75;5098051;27;96772;-30
2022/12/11 05:20:56;;;;;;;1.65;1.10;;;;;;;1.38;97.47;101175.13;5078990;27;101329;-31
2022/12/11 05:23:21;;;;;;;2.40;1.38;;;;;;;1.34;96.69;101156.53;5078035;27;101268;-31
2022/12/11 05:25:55;;;;;;;2.35;1.25;;;;;;;1.36;97.00;101160.03;5097883;27;96638;-31
2022/12/11 05:28:21;;;;;;;4.35;1.92;;;;;;;1.33;96.77;101162.75;5079313;27;96760;-31
2022/12/11 05:30:47;;;;;;;2.22;1.40;;;;;;;1.28;97.26;101155.69;5079015;27;101753;-31
2022/12/11 05:33:12;;;;;;;2.90;2.03;;;;;;;1.34;97.02;101162.75;5097918;27;97546;-31
2022/12/11 05:35:37;;;;;;;3.42;1.77;;;;;;;1.31;96.71;101157.47;5097504;27;96525;-32
2022/12/11 05:38:03;;;;;;;3.60;2.30;;;;;;;1.30;96.70;101150.34;5097002;27;96693;-31
2022/12/11 05:40:28;;;;;;;1.95;1.52;;;;;;;1.32;96.92;101155.66;5096680;27;97445;-33
2022/12/11 05:42:53;;;;;;;2.00;1.67;;;;;;;1.28;96.35;101155.69;5097338;27;97451;-33
2022/12/11 05:45:19;;;;;;;1.52;1.35;;;;;;;1.29;96.48;101153.94;5097316;27;96570;-32
2022/12/11 05:47:44;;;;;;;2.53;2.17;;;;;;;1.31;96.41;101145.88;5097644;27;96840;-31
2022/12/11 05:50:09;;;;;;;3.03;2.20;;;;;;;1.30;96.10;101146.81;5097376;27;98070;-32
2022/12/11 05:52:35;;;;;;;3.70;1.88;;;;;;;1.28;96.08;101158.38;5097103;27;99170;-31
2022/12/11 05:55:00;;;;;;;3.42;2.10;;;;;;;1.26;96.68;101149.53;5097448;27;96709;-31
2022/12/11 05:57:25;;;;;;;1.63;1.38;;;;;;;1.26;96.51;101154.88;5097950;27;96760;-31
2022/12/11 05:59:51;;;;;;;4.90;2.67;;;;;;;1.25;96.58;101153.09;5097289;27;97491;-32
2022/12/11 06:02:16;;;;;;;5.40;2.05;;;;;;;1.23;96.16;101157.59;5096944;27;98748;-30
2022/12/11 06:04:41;;;;;;;3.20;1.88;;;;;;;1.24;96.01;101159.34;5096912;27;96604;-31
2022/12/11 06:07:07;;;;;;;3.88;2.30;;;;;;;1.27;96.54;101159.28;5097153;27;97398;-31
2022/12/11 06:09:32;;;;;;;2.92;1.63;;;;;;;1.24;95.63;101167.38;5096942;27;99658;-31
2022/12/11 06:11:57;;;;;;;1.83;1.50;;;;;;;1.25;95.75;101166.44;5096781;27;99259;-31
2022/12/11 06:14:23;;;;;;;5.10;2.50;;;;;;;1.23;95.69;101173.59;5097654;27;96498;-31
2022/12/11 06:16:49;;;;;;;4.43;1.88;;;;;;;1.23;95.87;101167.38;5097293;27;96766;-32
2022/12/11 06:19:17;;;;;;;4.93;2.65;;;;;;;1.27;96.40;101172.63;5096616;27;98100;-32
2022/12/11 06:21:42;;;;;;;1.75;1.20;;;;;;;1.27;95.94;101167.31;5078271;27;101452;-31
2022/12/11 06:24:09;;;;;;;5.53;2.63;;;;;;;1.26;95.84;101172.66;5077546;27;96888;-32
2022/12/11 06:26:35;;;;;;;5.70;2.65;;;;;;;1.27;95.53;101177.09;5078263;27;96835;-30
2022/12/11 06:29:00;;;;;;;4.03;2.05;;;;;;;1.26;95.43;101173.56;5096059;27;97870;-31
2022/12/11 06:31:25;;;;;;;1.83;1.58;;;;;;;1.25;95.41;101165.56;5096750;27;97944;-31
2022/12/11 06:33:51;;;;;;;3.22;2.28;;;;;;;1.26;95.52;101170.88;5097329;27;96614;-31
2022/12/11 06:36:19;;;;;;;8.43;3.17;;;;;;;1.28;95.95;101170.84;5097257;27;96732;-31
2022/12/11 06:38:45;;;;;;;5.85;3.35;;;;;;;1.25;95.77;101160.22;5077777;27;101102;-31
2022/12/11 06:41:11;;;;;;;3.05;1.85;;;;;;;1.25;95.78;101176.25;5096428;27;97857;-32
2022/12/11 06:43:37;;;;;;;2.30;1.95;;;;;;;1.23;96.01;101170.91;5078124;27;96642;-31
2022/12/11 06:46:09;;;;;;;8.13;4.07;;;;;;;1.25;95.62;101184.25;5096900;27;96784;-31
2022/12/11 06:48:35;;;;;;;1.63;1.27;;;;;;;1.22;95.42;101177.19;5077270;27;101244;-31
2022/12/11 06:51:06;;;;;;;1.88;1.50;;;;;;;1.25;95.68;101174.44;5077667;27;101011;-31
2022/12/11 06:53:31;;;;;;;3.63;1.40;;;;;;;1.23;95.28;101180.72;5095976;27;96515;-32
2022/12/11 06:56:01;;;;;;;1.10;0.90;;;;;;;1.21;95.12;101172.72;5096427;27;96788;-31
2022/12/11 06:58:26;;;;;;;2.00;1.33;;;;;;;1.21;94.97;101175.41;5077542;27;101154;-32
2022/12/11 07:00:52;;;;;;;4.68;2.08;;;;;;;1.17;95.14;101165.72;5096200;27;101225;-30
2022/12/11 07:03:17;;;;;;;4.50;2.10;;;;;;;1.13;94.52;101158.66;5096565;27;96599;-31
2022/12/11 07:05:42;;;;;;;6.15;2.20;;;;;;;1.14;94.59;101163.06;5096092;27;96798;-32
2022/12/11 07:08:08;;;;;;;3.88;2.08;;;;;;;1.15;95.25;101158.66;5095346;27;111345;-31
2022/12/11 07:10:33;;;;;;;3.53;1.67;;;;;;;1.17;94.64;101157.72;5096358;27;97845;-33
2022/12/11 07:12:58;;;;;;;5.00;2.90;;;;;;;1.18;95.11;101153.25;5095947;27;96444;-31
2022/12/11 07:15:23;;;;;;;0.82;0.75;;;;;;;1.16;94.73;101160.41;5096636;27;96805;-33
2022/12/11 07:17:49;;;;;;;3.47;1.92;;;;;;;1.11;94.41;101154.25;5095216;27;99792;-32
2022/12/11 07:20:14;;;;;;;2.97;2.03;;;;;;;1.13;94.46;101161.34;5095320;27;99107;-32
2022/12/11 07:22:40;;;;;;;3.33;2.22;;;;;;;1.13;94.57;101153.31;5095918;27;96863;-31
2022/12/11 07:25:05;;;;;;;0.88;0.85;;;;;;;1.14;94.36;101154.19;5095764;27;96887;-31
2022/12/11 07:27:30;;;;;;;6.30;2.85;;;;;;;1.16;94.93;101150.59;5095935;27;98104;-31
2022/12/11 07:29:56;;;;;;;3.00;2.53;;;;;;;1.17;94.65;101159.47;5095611;27;99170;-32
2022/12/11 07:32:21;;;;;;;4.70;2.70;;;;;;;1.13;93.84;101163.13;5096217;27;97243;-33
2022/12/11 07:34:48;;;;;;;7.50;3.50;;;;;;;1.14;93.81;101163.06;5096254;27;96707;-32
2022/12/11 07:37:13;;;;;;;1.92;1.08;;;;;;;1.15;94.48;101169.31;5076999;27;101652;-31
2022/12/11 07:39:39;;;;;;;2.35;1.98;;;;;;;1.12;94.20;101164.00;5095679;27;97453;-31
2022/12/11 07:42:04;;;;;;;2.92;2.35;;;;;;;1.15;94.50;101169.31;5095497;27;96603;-32
2022/12/11 07:44:29;;;;;;;3.53;2.53;;;;;;;1.13;94.01;101176.47;5095811;27;96815;-31
2022/12/11 07:46:55;;;;;;;3.40;1.83;;;;;;;1.15;94.04;101177.31;5095484;27;98020;-31
2022/12/11 07:49:20;;;;;;;6.53;3.03;;;;;;;1.16;93.80;101182.59;5095604;27;97882;-31
2022/12/11 07:51:45;;;;;;;2.35;1.98;;;;;;;1.17;94.44;101186.16;5095591;27;96561;-31
2022/12/11 07:54:15;;;;;;;12.10;2.53;;;;;;;1.15;94.02;101174.66;5095871;27;96780;-30
2022/12/11 07:56:44;;;;;;;9.15;3.00;;;;;;;1.18;94.31;101186.13;5076896;27;101028;-31
2022/12/11 07:59:09;;;;;;;5.60;2.60;;;;;;;1.17;93.91;101192.41;5077246;27;101186;-31
2022/12/11 08:01:36;;;;;;;3.97;2.83;;;;;;;1.16;94.13;101187.06;5098926;27;96529;-31
2022/12/11 08:04:07;;;;;;;2.90;2.00;;;;;;;1.13;93.61;101187.13;5098929;27;96729;-31
2022/12/11 08:06:35;;;;;;;2.28;1.55;;;;;;;1.13;93.58;101180.00;5098602;27;97969;-30
2022/12/11 08:09:02;;;;;;;2.17;1.75;;;;;;;1.16;93.98;101189.75;5080078;27;100955;-31
2022/12/11 08:11:28;;;;;;;4.78;2.72;;;;;;;1.16;93.33;101182.59;5080434;27;96798;-31
2022/12/11 08:13:54;;;;;;;4.55;3.10;;;;;;;1.17;93.70;101180.81;5099260;27;96759;-31
2022/12/11 08:16:20;;;;;;;4.47;2.85;;;;;;;1.20;93.92;101184.31;5079989;27;100905;-31
2022/12/11 08:18:47;;;;;;;4.50;3.20;;;;;;;1.21;93.89;101185.19;5079621;27;100904;-30
2022/12/11 08:21:16;;;;;;;3.13;1.73;;;;;;;1.23;94.12;101186.06;5080395;27;96675;-31
2022/12/11 08:23:42;;;;;;;6.13;2.83;;;;;;;1.22;94.55;101193.19;5079827;27;96945;-31
2022/12/11 08:26:13;;;;;;;7.68;3.42;;;;;;;1.23;94.39;101188.72;5079707;27;99122;-32
2022/12/11 08:28:39;;;;;;;3.13;2.60;;;;;;;1.27;94.00;101187.78;5080140;27;100879;-31
2022/12/11 08:31:08;;;;;;;3.40;2.13;;;;;;;1.28;94.27;101184.19;5098117;27;96698;-31
2022/12/11 08:33:35;;;;;;;2.80;2.08;;;;;;;1.30;94.68;101190.38;5080102;27;96757;-31
2022/12/11 08:36:05;;;;;;;2.88;2.50;;;;;;;1.30;94.56;101200.19;5079827;27;100827;-31
2022/12/11 08:38:31;;;;;;;5.28;2.88;;;;;;;1.28;94.36;101187.72;5079750;27;101360;-31
2022/12/11 08:40:57;;;;;;;4.80;2.33;;;;;;;1.28;94.08;101187.72;5080066;27;96693;-32
2022/12/11 08:43:22;;;;;;;4.65;3.30;;;;;;;1.30;94.33;101184.16;5098824;27;96754;-31
2022/12/11 08:45:47;;;;;;;11.30;3.72;;;;;;;1.31;94.83;101184.16;5097898;27;98123;-31
2022/12/11 08:48:12;;;;;;;3.88;1.88;;;;;;;1.30;94.16;101178.84;5098496;27;98814;-31
2022/12/11 08:50:38;;;;;;;3.85;2.90;;;;;;;1.31;94.46;101189.50;5098696;27;96444;-31
2022/12/11 08:53:03;;;;;;;3.63;2.08;;;;;;;1.33;94.05;101189.44;5098623;27;96457;-31
2022/12/11 08:55:28;;;;;;;5.00;2.53;;;;;;;1.30;94.10;101182.38;5097824;27;97350;-31
2022/12/11 08:57:54;;;;;;;4.03;2.55;;;;;;;1.30;94.04;101177.03;5098285;27;97324;-32
2022/12/11 09:00:19;;;;;;;5.57;2.30;;;;;;;1.30;94.44;101174.38;5097882;27;97658;-31
2022/12/11 09:02:45;;;;;;;5.05;2.72;;;;;;;1.33;94.31;101179.63;5098486;27;96845;-31
2022/12/11 09:05:10;;;;;;;2.97;1.75;;;;;;;1.32;94.68;101177.03;5097705;27;99707;-31
2022/12/11 09:07:37;;;;;;;3.55;1.95;;;;;;;1.31;94.43;101181.47;5097654;27;99484;-32
2022/12/11 09:10:05;;;;;;;7.75;3.63;;;;;;;1.32;95.14;101180.56;5098045;27;96580;-31
2022/12/11 09:12:32;;;;;;;4.20;3.08;;;;;;;1.36;94.83;101181.38;5079725;27;96838;-31
2022/12/11 09:14:57;;;;;;;4.68;2.63;;;;;;;1.35;95.05;101179.63;5078804;27;101524;-32
2022/12/11 09:17:22;;;;;;;6.57;2.58;;;;;;;1.34;94.83;101177.88;5098007;27;96553;-30
2022/12/11 09:19:48;;;;;;;2.90;2.20;;;;;;;1.39;95.05;101184.00;5097413;27;96643;-31
2022/12/11 09:22:13;;;;;;;3.25;2.47;;;;;;;1.36;94.91;101168.94;5097814;27;96779;-32
2022/12/11 09:24:38;;;;;;;2.53;2.00;;;;;;;1.40;95.51;101172.41;5097148;27;97807;-32
2022/12/11 09:27:04;;;;;;;6.68;2.60;;;;;;;1.40;95.37;101175.94;5097537;27;97874;-31
2022/12/11 09:29:31;;;;;;;5.40;2.92;;;;;;;1.43;95.11;101180.34;5061911;27;96960;-31
2022/12/11 09:31:56;;;;;;;2.88;1.65;;;;;;;1.44;95.23;101174.13;5079281;27;96906;-31
2022/12/11 09:34:22;;;;;;;7.53;3.65;;;;;;;1.42;95.05;101173.25;5097599;27;97887;-30
2022/12/11 09:36:47;;;;;;;3.42;2.30;;;;;;;1.41;95.29;101172.38;5079187;27;101009;-32
2022/12/11 09:39:15;;;;;;;3.13;2.25;;;;;;;1.39;95.19;101173.31;5097940;27;96493;-30
2022/12/11 09:42:06;;;;;;;3.00;2.47;;;;;;;1.41;95.44;101180.41;5078998;27;96810;-31
2022/12/11 09:44:52;;;;;;;2.58;1.92;;;;;;;1.41;95.69;101172.38;5078317;27;100854;-33
2022/12/11 09:47:31;;;;;;;2.38;1.88;;;;;;;1.45;95.75;101179.44;5078726;27;101020;-31
2022/12/11 09:50:19;;;;;;;4.90;2.58;;;;;;;1.47;95.69;101171.38;5097487;27;96620;-31
2022/12/11 09:53:11;;;;;;;10.25;3.47;;;;;;;1.51;95.45;101175.75;5078743;27;96862;-30
2022/12/11 09:55:59;;;;;;;10.27;4.55;;;;;;;1.55;95.61;101173.91;5078426;27;100738;-32
2022/12/11 09:58:37;;;;;;;10.38;3.63;;;;;;;1.54;95.52;101173.03;5078578;27;101159;-31
2022/12/11 10:01:31;;;;;;;3.38;2.60;;;;;;;1.49;95.38;101172.25;5097183;27;96570;-30
2022/12/11 10:04:14;;;;;;;1.95;1.75;;;;;;;1.49;95.79;101169.56;5086068;27;99158;-31
2022/12/11 10:06:40;;;;;;;6.30;1.60;;;;;;;1.53;95.48;101178.41;5078207;27;100001;-31
2022/12/11 10:09:26;;;;;;;5.35;3.38;;;;;;;1.53;95.17;101179.28;5096323;27;99287;-33
2022/12/11 10:11:55;;;;;;;4.00;2.25;;;;;;;1.54;95.50;101182.84;5078142;27;96696;-30
2022/12/11 10:14:55;;;;;;;7.80;3.58;;;;;;;1.57;95.53;101175.63;5096821;27;96556;-31
2022/12/11 10:17:27;;;;;;;3.30;2.88;;;;;;;1.57;95.16;101170.28;5096786;27;98205;-32
2022/12/11 10:19:56;;;;;;;4.88;2.92;;;;;;;1.58;95.27;101169.41;5077752;27;101018;-30
2022/12/11 10:22:26;;;;;;;5.25;2.40;;;;;;;1.59;95.09;101170.28;5077480;27;96847;-31
2022/12/11 10:25:02;;;;;;;2.83;2.30;;;;;;;1.63;95.22;101174.66;5077878;27;96786;-31
2022/12/11 10:27:34;;;;;;;6.97;3.08;;;;;;;1.66;95.39;101158.56;5077772;27;101382;-32
2022/12/11 10:30:14;;;;;;;5.38;2.40;;;;;;;1.63;95.18;101164.84;5096815;27;97888;-32
2022/12/11 10:32:43;;;;;;;5.95;3.30;;;;;;;1.57;94.64;101154.28;5078378;27;96506;-32
2022/12/11 10:35:32;;;;;;;5.28;2.55;;;;;;;1.58;94.66;101155.19;5078164;27;96723;-32
2022/12/11 10:38:26;;;;;;;7.78;3.10;;;;;;;1.60;95.28;101156.03;5081011;27;97419;-31
2022/12/11 10:40:56;;;;;;;5.13;3.20;;;;;;;1.55;94.80;101148.13;5096651;27;97812;-30
2022/12/11 10:43:33;;;;;;;3.42;2.65;;;;;;;1.55;95.01;101142.78;5078095;27;96526;-31
2022/12/11 10:45:58;;;;;;;3.60;2.78;;;;;;;1.57;94.75;101146.25;5077995;27;96701;-31
2022/12/11 10:48:24;;;;;;;5.03;3.75;;;;;;;1.58;94.59;101141.84;5096517;27;97896;-31
2022/12/11 10:51:05;;;;;;;11.70;3.35;;;;;;;1.59;94.75;101139.09;5095759;27;99208;-31
2022/12/11 10:53:32;;;;;;;5.72;2.17;;;;;;;1.58;94.61;101142.69;5077834;27;96611;-31
2022/12/11 10:55:59;;;;;;;5.22;2.78;;;;;;;1.57;94.70;101140.94;5078426;27;96826;-31
2022/12/11 10:58:28;;;;;;;3.47;1.52;;;;;;;1.56;94.73;101138.31;5077561;27;100777;-31
2022/12/11 11:01:20;;;;;;;6.22;3.85;;;;;;;1.56;94.71;101132.97;5077399;27;101268;-32
2022/12/11 11:04:03;;;;;;;5.57;1.75;;;;;;;1.60;95.13;101137.34;5084361;27;96632;-30
2022/12/11 11:06:29;;;;;;;4.47;2.72;;;;;;;1.60;94.94;101132.88;5096537;27;96620;-30
2022/12/11 11:08:59;;;;;;;5.43;4.25;;;;;;;1.64;95.09;101131.00;5096049;27;97404;-30
2022/12/11 11:11:32;;;;;;;9.13;3.47;;;;;;;1.65;95.08;101124.78;5077304;27;100728;-31
2022/12/11 11:14:16;;;;;;;7.93;2.20;;;;;;;1.59;94.88;101120.41;5077847;27;96606;-31
2022/12/11 11:16:45;;;;;;;3.17;2.78;;;;;;;1.65;94.88;101131.00;5077469;27;96832;-31
2022/12/11 11:19:34;;;;;;;4.63;3.45;;;;;;;1.69;95.07;101122.00;5077107;27;100792;-31
2022/12/11 11:22:07;;;;;;;3.80;2.38;;;;;;;1.65;94.34;101130.13;5082870;27;98421;-32
2022/12/11 11:24:43;;;;;;;7.22;3.33;;;;;;;1.69;94.85;101142.47;5076918;27;97307;-31
2022/12/11 11:27:24;;;;;;;4.75;3.20;;;;;;;1.66;94.68;101130.06;5077437;27;96795;-31
2022/12/11 11:29:55;;;;;;;9.20;4.20;;;;;;;1.66;94.23;101132.72;5076681;27;101032;-30
2022/12/11 11:32:32;;;;;;;6.32;2.78;;;;;;;1.66;94.18;101135.41;5076912;27;100828;-30
2022/12/11 11:35:12;;;;;;;9.48;4.80;;;;;;;1.68;94.48;101138.06;5079992;27;96634;-31
2022/12/11 11:37:45;;;;;;;4.85;3.03;;;;;;;1.66;94.11;101135.41;5081187;27;96782;-30
2022/12/11 11:40:13;;;;;;;5.40;2.80;;;;;;;1.63;94.04;101130.13;5099293;27;99855;-31
2022/12/11 11:42:49;;;;;;;3.70;2.50;;;;;;;1.67;94.39;101131.84;5099158;27;98765;-31
2022/12/11 11:45:27;;;;;;;4.85;2.90;;;;;;;1.69;94.30;101122.00;5080855;27;96677;-31
2022/12/11 11:48:15;;;;;;;6.40;3.67;;;;;;;1.75;94.43;101130.81;5081242;27;96694;-30
2022/12/11 11:50:45;;;;;;;11.38;5.35;;;;;;;1.72;94.23;101122.84;5080669;27;100887;-31
2022/12/11 11:53:39;;;;;;;7.78;4.38;;;;;;;1.75;94.05;101129.00;5080435;27;101219;-31